sensor_id;sensor_type;location;lat;lon;timestamp;temperature;humidity
55331;DHT22;58851;42.984;20.336;2023-05-07T00:01:59;256.40;6502.40
55331;DHT22;58851;42.984;20.336;2023-05-07T00:04:25;256.20;6502.40
55331;DHT22;58851;42.984;20.336;2023-05-07T00:06:51;256.10;6502.40
55331;DHT22;58851;42.984;20.336;2023-05-07T00:09:16;256.10;6502.40
55331;DHT22;58851;42.984;20.336;2023-05-07T00:11:42;256.10;6502.40
55331;DHT22;58851;42.984;20.336;2023-05-07T00:14:08;256.10;6502.40
55331;DHT22;58851;42.984;20.336;2023-05-07T00:16:34;256.10;6502.40
55331;DHT22;58851;42.984;20.336;2023-05-07T00:19:00;256.10;6502.40
55331;DHT22;58851;42.984;20.336;2023-05-07T00:21:25;256.10;6502.40
55331;DHT22;58851;42.984;20.336;2023-05-07T00:23:53;256.00;6502.40
55331;DHT22;58851;42.984;20.336;2023-05-07T00:26:18;231.30;6502.40
55331;DHT22;58851;42.984;20.336;2023-05-07T00:28:44;256.00;6502.40
55331;DHT22;58851;42.984;20.336;2023-05-07T00:31:10;256.00;6502.40
55331;DHT22;58851;42.984;20.336;2023-05-07T00:33:36;231.30;6502.40
55331;DHT22;58851;42.984;20.336;2023-05-07T00:36:02;231.30;6502.40
55331;DHT22;58851;42.984;20.336;2023-05-07T00:38:28;231.30;6502.40
55331;DHT22;58851;42.984;20.336;2023-05-07T00:40:54;231.20;6502.40
55331;DHT22;58851;42.984;20.336;2023-05-07T00:43:19;231.20;6502.40
55331;DHT22;58851;42.984;20.336;2023-05-07T00:45:46;231.30;6502.40
55331;DHT22;58851;42.984;20.336;2023-05-07T00:48:11;231.30;6502.40
55331;DHT22;58851;42.984;20.336;2023-05-07T00:50:38;231.20;6502.40
55331;DHT22;58851;42.984;20.336;2023-05-07T00:53:04;231.10;6502.40
55331;DHT22;58851;42.984;20.336;2023-05-07T00:55:30;231.10;6502.40
55331;DHT22;58851;42.984;20.336;2023-05-07T00:57:56;231.00;6502.40
55331;DHT22;58851;42.984;20.336;2023-05-07T01:00:22;231.10;6502.40
55331;DHT22;58851;42.984;20.336;2023-05-07T01:02:47;231.10;6502.40
55331;DHT22;58851;42.984;20.336;2023-05-07T01:05:15;231.00;6502.40
55331;DHT22;58851;42.984;20.336;2023-05-07T01:07:42;231.00;6502.40
55331;DHT22;58851;42.984;20.336;2023-05-07T01:10:09;231.10;6502.40
55331;DHT22;58851;42.984;20.336;2023-05-07T01:12:37;231.00;6502.40
55331;DHT22;58851;42.984;20.336;2023-05-07T01:15:04;231.00;6502.40
55331;DHT22;58851;42.984;20.336;2023-05-07T01:17:37;231.10;6502.40
55331;DHT22;58851;42.984;20.336;2023-05-07T01:20:06;231.00;6502.40
55331;DHT22;58851;42.984;20.336;2023-05-07T01:22:34;231.00;6502.40
55331;DHT22;58851;42.984;20.336;2023-05-07T01:25:02;231.00;6502.40
55331;DHT22;58851;42.984;20.336;2023-05-07T01:27:28;230.90;6502.40
55331;DHT22;58851;42.984;20.336;2023-05-07T01:29:54;230.80;6502.40
55331;DHT22;58851;42.984;20.336;2023-05-07T01:35:18;230.80;6502.40
55331;DHT22;58851;42.984;20.336;2023-05-07T01:37:45;230.80;6502.40
55331;DHT22;58851;42.984;20.336;2023-05-07T01:40:15;230.80;6502.40
55331;DHT22;58851;42.984;20.336;2023-05-07T01:42:43;230.80;6502.40
55331;DHT22;58851;42.984;20.336;2023-05-07T01:45:09;230.70;6502.40
55331;DHT22;58851;42.984;20.336;2023-05-07T01:47:36;230.70;6502.40
55331;DHT22;58851;42.984;20.336;2023-05-07T01:50:05;230.60;6502.40
55331;DHT22;58851;42.984;20.336;2023-05-07T01:52:31;230.60;6502.40
55331;DHT22;58851;42.984;20.336;2023-05-07T01:54:57;230.60;6502.40
55331;DHT22;58851;42.984;20.336;2023-05-07T01:57:23;230.50;6502.40
55331;DHT22;58851;42.984;20.336;2023-05-07T01:59:48;230.50;6502.40
55331;DHT22;58851;42.984;20.336;2023-05-07T02:02:14;230.50;6502.40
55331;DHT22;58851;42.984;20.336;2023-05-07T02:04:40;230.50;6502.40
55331;DHT22;58851;42.984;20.336;2023-05-07T02:07:06;230.40;6502.40
55331;DHT22;58851;42.984;20.336;2023-05-07T02:09:32;230.40;6502.40
55331;DHT22;58851;42.984;20.336;2023-05-07T02:11:57;230.40;6502.40
55331;DHT22;58851;42.984;20.336;2023-05-07T02:14:23;205.70;6502.40
55331;DHT22;58851;42.984;20.336;2023-05-07T02:16:49;205.70;6502.40
55331;DHT22;58851;42.984;20.336;2023-05-07T02:19:15;205.60;6502.40
55331;DHT22;58851;42.984;20.336;2023-05-07T02:21:41;205.60;6502.40
55331;DHT22;58851;42.984;20.336;2023-05-07T02:24:07;205.50;6502.40
55331;DHT22;58851;42.984;20.336;2023-05-07T02:26:33;205.50;6502.40
55331;DHT22;58851;42.984;20.336;2023-05-07T02:28:59;205.40;6502.40
55331;DHT22;58851;42.984;20.336;2023-05-07T02:31:25;205.40;6502.40
55331;DHT22;58851;42.984;20.336;2023-05-07T02:33:51;205.40;6502.40
55331;DHT22;58851;42.984;20.336;2023-05-07T02:36:16;205.40;6502.40
55331;DHT22;58851;42.984;20.336;2023-05-07T02:38:42;205.40;6502.40
55331;DHT22;58851;42.984;20.336;2023-05-07T02:41:08;205.40;6502.40
55331;DHT22;58851;42.984;20.336;2023-05-07T02:43:34;205.40;6502.40
55331;DHT22;58851;42.984;20.336;2023-05-07T02:46:06;205.40;6502.40
55331;DHT22;58851;42.984;20.336;2023-05-07T02:48:33;205.40;6502.40
55331;DHT22;58851;42.984;20.336;2023-05-07T02:50:59;205.30;6502.40
55331;DHT22;58851;42.984;20.336;2023-05-07T02:53:26;205.30;6502.40
55331;DHT22;58851;42.984;20.336;2023-05-07T02:55:53;205.20;6502.40
55331;DHT22;58851;42.984;20.336;2023-05-07T02:58:19;205.20;6502.40
55331;DHT22;58851;42.984;20.336;2023-05-07T03:00:45;205.20;6502.40
55331;DHT22;58851;42.984;20.336;2023-05-07T03:03:11;205.20;6502.40
55331;DHT22;58851;42.984;20.336;2023-05-07T03:05:37;205.20;6502.40
55331;DHT22;58851;42.984;20.336;2023-05-07T03:08:03;205.00;6502.40
55331;DHT22;58851;42.984;20.336;2023-05-07T03:10:29;205.00;6502.40
55331;DHT22;58851;42.984;20.336;2023-05-07T03:12:55;205.00;6502.40
55331;DHT22;58851;42.984;20.336;2023-05-07T03:15:21;205.00;6502.40
55331;DHT22;58851;42.984;20.336;2023-05-07T03:17:48;205.00;6502.40
55331;DHT22;58851;42.984;20.336;2023-05-07T03:20:14;205.00;6502.40
55331;DHT22;58851;42.984;20.336;2023-05-07T03:22:40;205.00;6502.40
55331;DHT22;58851;42.984;20.336;2023-05-07T03:25:07;205.00;6502.40
55331;DHT22;58851;42.984;20.336;2023-05-07T03:27:33;204.90;6502.40
55331;DHT22;58851;42.984;20.336;2023-05-07T03:29:59;204.90;6502.40
55331;DHT22;58851;42.984;20.336;2023-05-07T03:32:24;205.00;6502.40
55331;DHT22;58851;42.984;20.336;2023-05-07T03:34:50;205.00;6502.40
55331;DHT22;58851;42.984;20.336;2023-05-07T03:37:16;205.00;6502.40
55331;DHT22;58851;42.984;20.336;2023-05-07T03:39:42;205.00;6502.40
55331;DHT22;58851;42.984;20.336;2023-05-07T03:42:08;205.00;6502.40
55331;DHT22;58851;42.984;20.336;2023-05-07T03:44:33;204.90;6502.40
55331;DHT22;58851;42.984;20.336;2023-05-07T03:47:02;205.00;6502.40
55331;DHT22;58851;42.984;20.336;2023-05-07T03:49:28;205.00;6502.40
55331;DHT22;58851;42.984;20.336;2023-05-07T03:51:53;204.90;6502.40
55331;DHT22;58851;42.984;20.336;2023-05-07T03:54:19;205.00;6502.40
55331;DHT22;58851;42.984;20.336;2023-05-07T03:56:45;205.00;6502.40
55331;DHT22;58851;42.984;20.336;2023-05-07T03:59:12;205.00;6502.40
55331;DHT22;58851;42.984;20.336;2023-05-07T04:01:38;205.00;6502.40
55331;DHT22;58851;42.984;20.336;2023-05-07T04:04:04;205.00;6502.40
55331;DHT22;58851;42.984;20.336;2023-05-07T04:06:30;205.00;6502.40
55331;DHT22;58851;42.984;20.336;2023-05-07T04:08:56;205.10;6502.40
55331;DHT22;58851;42.984;20.336;2023-05-07T04:11:22;205.10;6502.40
55331;DHT22;58851;42.984;20.336;2023-05-07T04:13:48;205.10;6502.40
55331;DHT22;58851;42.984;20.336;2023-05-07T04:16:14;205.10;6502.40
55331;DHT22;58851;42.984;20.336;2023-05-07T04:18:40;205.10;6502.40
55331;DHT22;58851;42.984;20.336;2023-05-07T04:21:17;205.20;6502.40
55331;DHT22;58851;42.984;20.336;2023-05-07T04:23:43;205.20;6502.40
55331;DHT22;58851;42.984;20.336;2023-05-07T04:26:09;205.30;6502.40
55331;DHT22;58851;42.984;20.336;2023-05-07T04:28:35;205.30;6502.40
55331;DHT22;58851;42.984;20.336;2023-05-07T04:31:02;205.30;6502.40
55331;DHT22;58851;42.984;20.336;2023-05-07T04:33:27;205.40;6502.40
55331;DHT22;58851;42.984;20.336;2023-05-07T04:35:53;205.40;6502.40
55331;DHT22;58851;42.984;20.336;2023-05-07T04:38:19;205.40;6502.40
55331;DHT22;58851;42.984;20.336;2023-05-07T04:40:45;205.40;6502.40
55331;DHT22;58851;42.984;20.336;2023-05-07T04:43:12;205.40;6502.40
55331;DHT22;58851;42.984;20.336;2023-05-07T04:45:38;205.50;6502.40
55331;DHT22;58851;42.984;20.336;2023-05-07T04:48:09;205.60;6502.40
55331;DHT22;58851;42.984;20.336;2023-05-07T04:50:35;205.70;6502.40
55331;DHT22;58851;42.984;20.336;2023-05-07T04:53:00;205.70;6502.40
55331;DHT22;58851;42.984;20.336;2023-05-07T04:55:26;230.40;6502.40
55331;DHT22;58851;42.984;20.336;2023-05-07T04:57:53;230.50;6502.40
55331;DHT22;58851;42.984;20.336;2023-05-07T05:00:19;230.50;6502.40
55331;DHT22;58851;42.984;20.336;2023-05-07T05:02:45;230.70;6502.40
55331;DHT22;58851;42.984;20.336;2023-05-07T05:05:11;230.70;6502.40
55331;DHT22;58851;42.984;20.336;2023-05-07T05:07:37;230.80;6502.40
55331;DHT22;58851;42.984;20.336;2023-05-07T05:10:04;231.00;6502.40
55331;DHT22;58851;42.984;20.336;2023-05-07T05:12:31;231.20;6502.40
55331;DHT22;58851;42.984;20.336;2023-05-07T05:14:57;256.00;6502.40
55331;DHT22;58851;42.984;20.336;2023-05-07T05:17:22;256.00;6502.40
55331;DHT22;58851;42.984;20.336;2023-05-07T05:19:48;231.30;6502.40
55331;DHT22;58851;42.984;20.336;2023-05-07T05:22:14;231.30;6502.40
55331;DHT22;58851;42.984;20.336;2023-05-07T05:24:40;231.20;6502.40
55331;DHT22;58851;42.984;20.336;2023-05-07T05:27:06;256.10;6502.40
55331;DHT22;58851;42.984;20.336;2023-05-07T05:29:32;256.20;6502.40
55331;DHT22;58851;42.984;20.336;2023-05-07T05:31:57;256.30;6502.40
55331;DHT22;58851;42.984;20.336;2023-05-07T05:34:23;256.40;6502.40
55331;DHT22;58851;42.984;20.336;2023-05-07T05:36:49;256.40;6502.40
55331;DHT22;58851;42.984;20.336;2023-05-07T05:39:15;256.40;6502.40
55331;DHT22;58851;42.984;20.336;2023-05-07T05:41:41;256.50;6502.40
55331;DHT22;58851;42.984;20.336;2023-05-07T05:44:06;256.60;6502.40
55331;DHT22;58851;42.984;20.336;2023-05-07T05:46:32;256.70;6502.40
55331;DHT22;58851;42.984;20.336;2023-05-07T05:48:58;256.80;6502.40
55331;DHT22;58851;42.984;20.336;2023-05-07T05:51:24;256.90;6502.40
55331;DHT22;58851;42.984;20.336;2023-05-07T05:53:50;281.70;6528.00
55331;DHT22;58851;42.984;20.336;2023-05-07T05:56:16;281.80;6528.00
55331;DHT22;58851;42.984;20.336;2023-05-07T05:58:42;281.90;6528.00
55331;DHT22;58851;42.984;20.336;2023-05-07T06:01:07;281.90;6528.00
55331;DHT22;58851;42.984;20.336;2023-05-07T06:03:33;281.90;6528.00
55331;DHT22;58851;42.984;20.336;2023-05-07T06:05:59;282.10;6528.00
55331;DHT22;58851;42.984;20.336;2023-05-07T06:08:31;282.20;6528.00
55331;DHT22;58851;42.984;20.336;2023-05-07T06:10:57;282.30;6528.00
55331;DHT22;58851;42.984;20.336;2023-05-07T06:13:23;282.30;6528.00
55331;DHT22;58851;42.984;20.336;2023-05-07T06:15:49;282.30;6528.00
55331;DHT22;58851;42.984;20.336;2023-05-07T06:18:15;282.50;6528.00
55331;DHT22;58851;42.984;20.336;2023-05-07T06:20:41;307.20;128.00
55331;DHT22;58851;42.984;20.336;2023-05-07T06:23:07;307.30;128.00
55331;DHT22;58851;42.984;20.336;2023-05-07T06:25:32;307.40;128.00
55331;DHT22;58851;42.984;20.336;2023-05-07T06:27:58;307.60;128.00
55331;DHT22;58851;42.984;20.336;2023-05-07T06:30:24;307.70;128.00
55331;DHT22;58851;42.984;20.336;2023-05-07T06:32:50;307.80;128.00
55331;DHT22;58851;42.984;20.336;2023-05-07T06:35:15;307.90;128.00
55331;DHT22;58851;42.984;20.336;2023-05-07T06:37:41;308.10;128.00
55331;DHT22;58851;42.984;20.336;2023-05-07T06:40:10;308.10;128.00
55331;DHT22;58851;42.984;20.336;2023-05-07T06:42:36;308.10;128.00
55331;DHT22;58851;42.984;20.336;2023-05-07T06:45:03;308.10;128.00
55331;DHT22;58851;42.984;20.336;2023-05-07T06:47:29;308.10;128.00
55331;DHT22;58851;42.984;20.336;2023-05-07T06:49:55;332.80;128.00
55331;DHT22;58851;42.984;20.336;2023-05-07T06:52:21;333.00;128.00
55331;DHT22;58851;42.984;20.336;2023-05-07T06:54:47;333.20;128.00
55331;DHT22;58851;42.984;20.336;2023-05-07T06:57:12;333.30;128.00
55331;DHT22;58851;42.984;20.336;2023-05-07T06:59:38;333.50;128.00
55331;DHT22;58851;42.984;20.336;2023-05-07T07:02:04;333.60;128.00
55331;DHT22;58851;42.984;20.336;2023-05-07T07:04:30;333.70;128.00
55331;DHT22;58851;42.984;20.336;2023-05-07T07:06:56;358.40;128.00
55331;DHT22;58851;42.984;20.336;2023-05-07T07:09:22;358.60;128.00
55331;DHT22;58851;42.984;20.336;2023-05-07T07:11:48;358.70;128.00
55331;DHT22;58851;42.984;20.336;2023-05-07T07:14:14;358.80;588.80
55331;DHT22;58851;42.984;20.336;2023-05-07T07:16:40;359.00;460.80
55331;DHT22;58851;42.984;20.336;2023-05-07T07:19:06;359.10;281.60
55331;DHT22;58851;42.984;20.336;2023-05-07T07:21:32;359.30;128.00
55331;DHT22;58851;42.984;20.336;2023-05-07T07:23:58;384.10;307.20
55331;DHT22;58851;42.984;20.336;2023-05-07T07:26:23;384.20;128.00
55331;DHT22;58851;42.984;20.336;2023-05-07T07:28:49;384.30;128.00
55331;DHT22;58851;42.984;20.336;2023-05-07T07:31:15;384.50;128.00
55331;DHT22;58851;42.984;20.336;2023-05-07T07:33:41;384.60;128.00
55331;DHT22;58851;42.984;20.336;2023-05-07T07:36:07;384.90;128.00
55331;DHT22;58851;42.984;20.336;2023-05-07T07:38:33;409.70;128.00
55331;DHT22;58851;42.984;20.336;2023-05-07T07:41:00;409.90;128.00
55331;DHT22;58851;42.984;20.336;2023-05-07T07:43:26;410.10;128.00
55331;DHT22;58851;42.984;20.336;2023-05-07T07:45:52;410.30;128.00
55331;DHT22;58851;42.984;20.336;2023-05-07T07:48:17;410.50;128.00
55331;DHT22;58851;42.984;20.336;2023-05-07T07:50:43;435.20;128.00
55331;DHT22;58851;42.984;20.336;2023-05-07T07:53:09;435.40;128.00
55331;DHT22;58851;42.984;20.336;2023-05-07T07:55:39;435.70;128.00
55331;DHT22;58851;42.984;20.336;2023-05-07T07:58:05;435.80;128.00
55331;DHT22;58851;42.984;20.336;2023-05-07T08:00:30;436.10;128.00
55331;DHT22;58851;42.984;20.336;2023-05-07T08:02:56;460.90;128.00
55331;DHT22;58851;42.984;20.336;2023-05-07T08:05:23;461.00;128.00
55331;DHT22;58851;42.984;20.336;2023-05-07T08:07:48;461.10;128.00
55331;DHT22;58851;42.984;20.336;2023-05-07T08:10:18;461.30;128.00
55331;DHT22;58851;42.984;20.336;2023-05-07T08:12:48;461.60;128.00
55331;DHT22;58851;42.984;20.336;2023-05-07T08:15:15;461.70;128.00
55331;DHT22;58851;42.984;20.336;2023-05-07T08:17:41;486.50;128.00
55331;DHT22;58851;42.984;20.336;2023-05-07T08:20:07;486.70;128.00
55331;DHT22;58851;42.984;20.336;2023-05-07T08:22:34;487.00;128.00
55331;DHT22;58851;42.984;20.336;2023-05-07T08:25:00;487.30;128.00
55331;DHT22;58851;42.984;20.336;2023-05-07T08:27:26;512.20;128.00
55331;DHT22;58851;42.984;20.336;2023-05-07T08:29:53;512.40;128.00
55331;DHT22;58851;42.984;20.336;2023-05-07T08:32:18;512.60;128.00
55331;DHT22;58851;42.984;20.336;2023-05-07T08:34:44;512.80;128.00
55331;DHT22;58851;42.984;20.336;2023-05-07T08:37:10;512.80;128.00
55331;DHT22;58851;42.984;20.336;2023-05-07T08:39:37;537.70;128.00
55331;DHT22;58851;42.984;20.336;2023-05-07T08:42:04;538.00;128.00
55331;DHT22;58851;42.984;20.336;2023-05-07T08:44:33;538.20;128.00
55331;DHT22;58851;42.984;20.336;2023-05-07T08:47:01;538.30;128.00
55331;DHT22;58851;42.984;20.336;2023-05-07T08:49:28;538.20;128.00
55331;DHT22;58851;42.984;20.336;2023-05-07T08:51:54;538.30;128.00
55331;DHT22;58851;42.984;20.336;2023-05-07T08:54:21;563.30;128.00
55331;DHT22;58851;42.984;20.336;2023-05-07T08:56:47;563.50;128.00
55331;DHT22;58851;42.984;20.336;2023-05-07T08:59:13;563.50;128.00
55331;DHT22;58851;42.984;20.336;2023-05-07T09:01:39;563.20;128.00
55331;DHT22;58851;42.984;20.336;2023-05-07T09:04:05;538.50;128.00
55331;DHT22;58851;42.984;20.336;2023-05-07T09:06:33;563.20;128.00
55331;DHT22;58851;42.984;20.336;2023-05-07T09:08:59;538.30;128.00
55331;DHT22;58851;42.984;20.336;2023-05-07T09:11:27;538.30;128.00
55331;DHT22;58851;42.984;20.336;2023-05-07T09:13:57;538.10;128.00
55331;DHT22;58851;42.984;20.336;2023-05-07T09:16:25;538.40;128.00
55331;DHT22;58851;42.984;20.336;2023-05-07T09:18:53;563.50;128.00
55331;DHT22;58851;42.984;20.336;2023-05-07T09:21:20;563.80;128.00
55331;DHT22;58851;42.984;20.336;2023-05-07T09:23:50;563.80;128.00
55331;DHT22;58851;42.984;20.336;2023-05-07T09:26:16;563.50;128.00
55331;DHT22;58851;42.984;20.336;2023-05-07T09:28:42;563.70;128.00
55331;DHT22;58851;42.984;20.336;2023-05-07T09:31:09;563.80;128.00
55331;DHT22;58851;42.984;20.336;2023-05-07T09:33:34;563.70;128.00
55331;DHT22;58851;42.984;20.336;2023-05-07T09:36:04;563.70;128.00
55331;DHT22;58851;42.984;20.336;2023-05-07T09:38:31;564.00;128.00
55331;DHT22;58851;42.984;20.336;2023-05-07T09:41:09;588.80;128.00
55331;DHT22;58851;42.984;20.336;2023-05-07T09:43:36;588.90;128.00
55331;DHT22;58851;42.984;20.336;2023-05-07T09:46:11;588.90;128.00
55331;DHT22;58851;42.984;20.336;2023-05-07T09:48:38;588.90;128.00
55331;DHT22;58851;42.984;20.336;2023-05-07T09:51:22;589.10;128.00
55331;DHT22;58851;42.984;20.336;2023-05-07T09:53:53;589.10;128.00
55331;DHT22;58851;42.984;20.336;2023-05-07T09:56:19;589.10;128.00
55331;DHT22;58851;42.984;20.336;2023-05-07T09:58:46;588.90;128.00
55331;DHT22;58851;42.984;20.336;2023-05-07T10:01:12;564.10;128.00
55331;DHT22;58851;42.984;20.336;2023-05-07T10:03:40;564.10;128.00
55331;DHT22;58851;42.984;20.336;2023-05-07T10:06:09;564.10;128.00
55331;DHT22;58851;42.984;20.336;2023-05-07T10:08:36;589.00;128.00
55331;DHT22;58851;42.984;20.336;2023-05-07T10:11:04;589.20;128.00
55331;DHT22;58851;42.984;20.336;2023-05-07T10:13:30;589.40;128.00
55331;DHT22;58851;42.984;20.336;2023-05-07T10:15:57;614.40;128.00
55331;DHT22;58851;42.984;20.336;2023-05-07T10:18:23;614.40;128.00
55331;DHT22;58851;42.984;20.336;2023-05-07T10:20:55;614.50;128.00
55331;DHT22;58851;42.984;20.336;2023-05-07T10:23:23;614.70;128.00
55331;DHT22;58851;42.984;20.336;2023-05-07T10:25:52;614.80;128.00
55331;DHT22;58851;42.984;20.336;2023-05-07T10:28:21;614.70;128.00
55331;DHT22;58851;42.984;20.336;2023-05-07T10:30:58;614.40;128.00
55331;DHT22;58851;42.984;20.336;2023-05-07T10:33:29;589.60;128.00
55331;DHT22;58851;42.984;20.336;2023-05-07T10:36:00;589.60;128.00
55331;DHT22;58851;42.984;20.336;2023-05-07T10:38:27;589.70;128.00
55331;DHT22;58851;42.984;20.336;2023-05-07T10:40:54;614.40;128.00
55331;DHT22;58851;42.984;20.336;2023-05-07T10:43:19;614.40;128.00
55331;DHT22;58851;42.984;20.336;2023-05-07T10:49:09;614.50;128.00
55331;DHT22;58851;42.984;20.336;2023-05-07T10:51:37;614.50;128.00
55331;DHT22;58851;42.984;20.336;2023-05-07T10:56:42;614.70;128.00
55331;DHT22;58851;42.984;20.336;2023-05-07T11:02:00;614.40;128.00
55331;DHT22;58851;42.984;20.336;2023-05-07T11:04:32;614.40;128.00
55331;DHT22;58851;42.984;20.336;2023-05-07T11:12:17;614.60;128.00
55331;DHT22;58851;42.984;20.336;2023-05-07T11:14:43;589.70;128.00
55331;DHT22;58851;42.984;20.336;2023-05-07T11:17:10;614.50;128.00
55331;DHT22;58851;42.984;20.336;2023-05-07T11:19:50;614.80;128.00
55331;DHT22;58851;42.984;20.336;2023-05-07T11:25:03;640.00;128.00
55331;DHT22;58851;42.984;20.336;2023-05-07T11:27:29;615.10;128.00
55331;DHT22;58851;42.984;20.336;2023-05-07T11:29:55;615.00;128.00
55331;DHT22;58851;42.984;20.336;2023-05-07T11:32:26;615.10;128.00
55331;DHT22;58851;42.984;20.336;2023-05-07T11:34:53;615.10;128.00
55331;DHT22;58851;42.984;20.336;2023-05-07T11:37:19;614.70;128.00
55331;DHT22;58851;42.984;20.336;2023-05-07T11:39:46;614.80;128.00
55331;DHT22;58851;42.984;20.336;2023-05-07T11:42:30;614.70;128.00
55331;DHT22;58851;42.984;20.336;2023-05-07T11:44:57;614.50;128.00
55331;DHT22;58851;42.984;20.336;2023-05-07T11:47:24;614.50;128.00
55331;DHT22;58851;42.984;20.336;2023-05-07T11:49:54;614.40;128.00
55331;DHT22;58851;42.984;20.336;2023-05-07T11:52:22;615.00;128.00
55331;DHT22;58851;42.984;20.336;2023-05-07T11:54:53;615.20;128.00
55331;DHT22;58851;42.984;20.336;2023-05-07T11:57:19;640.10;128.00
55331;DHT22;58851;42.984;20.336;2023-05-07T11:59:45;640.10;128.00
55331;DHT22;58851;42.984;20.336;2023-05-07T12:02:17;640.40;128.00
55331;DHT22;58851;42.984;20.336;2023-05-07T12:04:44;640.70;128.00
55331;DHT22;58851;42.984;20.336;2023-05-07T12:07:14;640.70;128.00
55331;DHT22;58851;42.984;20.336;2023-05-07T12:09:41;640.70;128.00
55331;DHT22;58851;42.984;20.336;2023-05-07T12:12:07;640.60;128.00
55331;DHT22;58851;42.984;20.336;2023-05-07T12:14:37;640.50;128.00
55331;DHT22;58851;42.984;20.336;2023-05-07T12:17:03;640.20;128.00
55331;DHT22;58851;42.984;20.336;2023-05-07T12:19:30;615.30;128.00
55331;DHT22;58851;42.984;20.336;2023-05-07T12:21:57;615.20;128.00
55331;DHT22;58851;42.984;20.336;2023-05-07T12:24:23;615.20;128.00
55331;DHT22;58851;42.984;20.336;2023-05-07T12:26:49;615.30;128.00
55331;DHT22;58851;42.984;20.336;2023-05-07T12:29:15;640.00;128.00
55331;DHT22;58851;42.984;20.336;2023-05-07T12:31:43;615.30;128.00
55331;DHT22;58851;42.984;20.336;2023-05-07T12:34:12;615.20;128.00
55331;DHT22;58851;42.984;20.336;2023-05-07T12:36:39;640.10;128.00
55331;DHT22;58851;42.984;20.336;2023-05-07T12:39:09;640.00;128.00
55331;DHT22;58851;42.984;20.336;2023-05-07T12:41:55;640.00;128.00
55331;DHT22;58851;42.984;20.336;2023-05-07T12:44:33;615.20;128.00
55331;DHT22;58851;42.984;20.336;2023-05-07T12:47:03;615.20;128.00
55331;DHT22;58851;42.984;20.336;2023-05-07T12:49:29;640.00;128.00
55331;DHT22;58851;42.984;20.336;2023-05-07T12:51:54;640.30;128.00
55331;DHT22;58851;42.984;20.336;2023-05-07T12:54:36;640.60;128.00
55331;DHT22;58851;42.984;20.336;2023-05-07T12:57:07;666.10;153.60
55331;DHT22;58851;42.984;20.336;2023-05-07T12:59:38;691.30;153.60
55331;DHT22;58851;42.984;20.336;2023-05-07T13:02:04;691.20;153.60
55331;DHT22;58851;42.984;20.336;2023-05-07T13:04:30;691.20;153.60
55331;DHT22;58851;42.984;20.336;2023-05-07T13:06:56;666.20;153.60
55331;DHT22;58851;42.984;20.336;2023-05-07T13:09:22;666.10;153.60
55331;DHT22;58851;42.984;20.336;2023-05-07T13:11:47;665.70;153.60
55331;DHT22;58851;42.984;20.336;2023-05-07T13:14:13;665.70;153.60
55331;DHT22;58851;42.984;20.336;2023-05-07T13:16:39;665.80;153.60
55331;DHT22;58851;42.984;20.336;2023-05-07T13:19:05;666.10;153.60
55331;DHT22;58851;42.984;20.336;2023-05-07T13:21:32;691.20;153.60
55331;DHT22;58851;42.984;20.336;2023-05-07T13:23:58;691.20;153.60
55331;DHT22;58851;42.984;20.336;2023-05-07T13:26:24;666.50;153.60
55331;DHT22;58851;42.984;20.336;2023-05-07T13:28:51;691.20;153.60
55331;DHT22;58851;42.984;20.336;2023-05-07T13:31:17;666.40;153.60
55331;DHT22;58851;42.984;20.336;2023-05-07T13:33:43;666.40;153.60
55331;DHT22;58851;42.984;20.336;2023-05-07T13:36:09;666.40;153.60
55331;DHT22;58851;42.984;20.336;2023-05-07T13:38:35;666.20;153.60
55331;DHT22;58851;42.984;20.336;2023-05-07T13:41:01;666.00;153.60
55331;DHT22;58851;42.984;20.336;2023-05-07T13:43:27;666.00;153.60
55331;DHT22;58851;42.984;20.336;2023-05-07T13:45:53;666.40;153.60
55331;DHT22;58851;42.984;20.336;2023-05-07T13:48:19;666.40;153.60
55331;DHT22;58851;42.984;20.336;2023-05-07T13:50:45;691.50;153.60
55331;DHT22;58851;42.984;20.336;2023-05-07T13:53:11;691.60;153.60
55331;DHT22;58851;42.984;20.336;2023-05-07T13:55:37;691.90;153.60
55331;DHT22;58851;42.984;20.336;2023-05-07T13:58:02;691.90;153.60
55331;DHT22;58851;42.984;20.336;2023-05-07T14:00:29;691.90;153.60
55331;DHT22;58851;42.984;20.336;2023-05-07T14:02:56;691.40;153.60
55331;DHT22;58851;42.984;20.336;2023-05-07T14:05:22;691.20;153.60
55331;DHT22;58851;42.984;20.336;2023-05-07T14:07:54;666.20;153.60
55331;DHT22;58851;42.984;20.336;2023-05-07T14:10:23;665.80;153.60
55331;DHT22;58851;42.984;20.336;2023-05-07T14:12:49;665.70;153.60
55331;DHT22;58851;42.984;20.336;2023-05-07T14:15:16;666.40;153.60
55331;DHT22;58851;42.984;20.336;2023-05-07T14:17:43;666.10;153.60
55331;DHT22;58851;42.984;20.336;2023-05-07T14:20:11;665.70;153.60
55331;DHT22;58851;42.984;20.336;2023-05-07T14:22:37;640.90;128.00
55331;DHT22;58851;42.984;20.336;2023-05-07T14:25:03;640.50;128.00
55331;DHT22;58851;42.984;20.336;2023-05-07T14:27:29;640.50;128.00
55331;DHT22;58851;42.984;20.336;2023-05-07T14:29:55;640.80;128.00
55331;DHT22;58851;42.984;20.336;2023-05-07T14:32:21;640.70;128.00
55331;DHT22;58851;42.984;20.336;2023-05-07T14:34:47;640.50;128.00
55331;DHT22;58851;42.984;20.336;2023-05-07T14:37:13;640.50;128.00
55331;DHT22;58851;42.984;20.336;2023-05-07T14:39:39;640.50;128.00
55331;DHT22;58851;42.984;20.336;2023-05-07T14:42:05;640.50;128.00
55331;DHT22;58851;42.984;20.336;2023-05-07T14:44:34;640.50;128.00
55331;DHT22;58851;42.984;20.336;2023-05-07T14:47:00;640.40;128.00
55331;DHT22;58851;42.984;20.336;2023-05-07T14:49:26;640.30;128.00
55331;DHT22;58851;42.984;20.336;2023-05-07T14:51:51;640.10;128.00
55331;DHT22;58851;42.984;20.336;2023-05-07T14:54:17;615.30;128.00
55331;DHT22;58851;42.984;20.336;2023-05-07T14:56:43;615.10;128.00
55331;DHT22;58851;42.984;20.336;2023-05-07T14:59:09;615.10;128.00
55331;DHT22;58851;42.984;20.336;2023-05-07T15:01:36;615.10;128.00